sensor_id;sensor_type;location;lat;lon;timestamp;temperature;humidity
40289;DHT22;28991;52.028;5.526;2022-11-20T00:01:41;17.70;48.40
40289;DHT22;28991;52.028;5.526;2022-11-20T00:04:08;17.70;47.80
40289;DHT22;28991;52.028;5.526;2022-11-20T00:06:33;17.70;47.80
40289;DHT22;28991;52.028;5.526;2022-11-20T00:09:00;17.70;47.80
40289;DHT22;28991;52.028;5.526;2022-11-20T00:11:28;17.70;47.80
40289;DHT22;28991;52.028;5.526;2022-11-20T00:13:56;17.70;47.80
40289;DHT22;28991;52.028;5.526;2022-11-20T00:16:27;17.70;47.80
40289;DHT22;28991;52.028;5.526;2022-11-20T00:18:53;17.70;47.80
40289;DHT22;28991;52.028;5.526;2022-11-20T00:21:22;17.70;47.70
40289;DHT22;28991;52.028;5.526;2022-11-20T00:23:49;17.70;47.80
40289;DHT22;28991;52.028;5.526;2022-11-20T00:26:18;17.70;47.80
40289;DHT22;28991;52.028;5.526;2022-11-20T00:28:49;17.80;47.80
40289;DHT22;28991;52.028;5.526;2022-11-20T00:31:15;17.70;47.80
40289;DHT22;28991;52.028;5.526;2022-11-20T00:33:43;17.70;47.70
40289;DHT22;28991;52.028;5.526;2022-11-20T00:36:22;17.70;47.70
40289;DHT22;28991;52.028;5.526;2022-11-20T00:38:55;17.80;47.80
40289;DHT22;28991;52.028;5.526;2022-11-20T00:41:21;17.70;47.70
40289;DHT22;28991;52.028;5.526;2022-11-20T00:43:47;17.70;47.70
40289;DHT22;28991;52.028;5.526;2022-11-20T00:46:17;17.70;47.70
40289;DHT22;28991;52.028;5.526;2022-11-20T00:48:44;17.70;47.70
40289;DHT22;28991;52.028;5.526;2022-11-20T00:51:12;17.60;47.60
40289;DHT22;28991;52.028;5.526;2022-11-20T00:53:38;17.30;47.50
40289;DHT22;28991;52.028;5.526;2022-11-20T00:56:06;17.70;47.70
40289;DHT22;28991;52.028;5.526;2022-11-20T00:58:34;17.70;47.70
40289;DHT22;28991;52.028;5.526;2022-11-20T01:01:11;17.60;47.70
40289;DHT22;28991;52.028;5.526;2022-11-20T01:03:40;17.60;47.70
40289;DHT22;28991;52.028;5.526;2022-11-20T01:06:09;17.70;47.70
40289;DHT22;28991;52.028;5.526;2022-11-20T01:08:36;17.70;47.70
40289;DHT22;28991;52.028;5.526;2022-11-20T01:11:10;17.60;47.60
40289;DHT22;28991;52.028;5.526;2022-11-20T01:13:36;17.20;47.40
40289;DHT22;28991;52.028;5.526;2022-11-20T01:16:28;17.60;47.60
40289;DHT22;28991;52.028;5.526;2022-11-20T01:18:58;17.70;47.70
40289;DHT22;28991;52.028;5.526;2022-11-20T01:21:35;17.60;47.70
40289;DHT22;28991;52.028;5.526;2022-11-20T01:24:01;17.60;47.70
40289;DHT22;28991;52.028;5.526;2022-11-20T01:26:32;17.70;47.70
40289;DHT22;28991;52.028;5.526;2022-11-20T01:28:59;17.60;47.60
40289;DHT22;28991;52.028;5.526;2022-11-20T01:31:31;17.60;47.70
40289;DHT22;28991;52.028;5.526;2022-11-20T01:33:59;17.60;47.60
40289;DHT22;28991;52.028;5.526;2022-11-20T01:36:27;17.60;47.60
40289;DHT22;28991;52.028;5.526;2022-11-20T01:38:56;17.60;47.60
40289;DHT22;28991;52.028;5.526;2022-11-20T01:41:23;17.60;47.60
40289;DHT22;28991;52.028;5.526;2022-11-20T01:44:10;17.60;47.60
40289;DHT22;28991;52.028;5.526;2022-11-20T01:46:38;17.60;47.60
40289;DHT22;28991;52.028;5.526;2022-11-20T01:49:15;17.60;47.60
40289;DHT22;28991;52.028;5.526;2022-11-20T01:51:47;17.60;47.60
40289;DHT22;28991;52.028;5.526;2022-11-20T01:54:21;17.70;47.60
40289;DHT22;28991;52.028;5.526;2022-11-20T01:56:50;17.60;47.60
40289;DHT22;28991;52.028;5.526;2022-11-20T01:59:18;17.60;47.60
40289;DHT22;28991;52.028;5.526;2022-11-20T02:01:44;17.60;47.60
40289;DHT22;28991;52.028;5.526;2022-11-20T02:04:10;17.60;47.60
40289;DHT22;28991;52.028;5.526;2022-11-20T02:06:44;17.50;47.50
40289;DHT22;28991;52.028;5.526;2022-11-20T02:09:10;17.70;47.70
40289;DHT22;28991;52.028;5.526;2022-11-20T02:11:36;17.60;47.60
40289;DHT22;28991;52.028;5.526;2022-11-20T02:14:02;17.60;47.60
40289;DHT22;28991;52.028;5.526;2022-11-20T02:18:55;17.60;47.50
40289;DHT22;28991;52.028;5.526;2022-11-20T02:26:22;17.60;47.50
40289;DHT22;28991;52.028;5.526;2022-11-20T02:28:48;17.70;47.50
40289;DHT22;28991;52.028;5.526;2022-11-20T02:31:14;17.50;47.40
40289;DHT22;28991;52.028;5.526;2022-11-20T02:33:40;17.50;47.40
40289;DHT22;28991;52.028;5.526;2022-11-20T02:36:07;17.60;47.50
40289;DHT22;28991;52.028;5.526;2022-11-20T02:38:33;17.50;47.40
40289;DHT22;28991;52.028;5.526;2022-11-20T02:40:59;17.70;47.50
40289;DHT22;28991;52.028;5.526;2022-11-20T02:43:24;17.50;47.40
40289;DHT22;28991;52.028;5.526;2022-11-20T02:45:50;17.50;47.40
40289;DHT22;28991;52.028;5.526;2022-11-20T02:48:15;17.50;47.30
40289;DHT22;28991;52.028;5.526;2022-11-20T02:50:41;17.50;47.30
40289;DHT22;28991;52.028;5.526;2022-11-20T02:53:07;17.50;47.30
40289;DHT22;28991;52.028;5.526;2022-11-20T02:55:33;17.50;47.30
40289;DHT22;28991;52.028;5.526;2022-11-20T02:57:58;17.50;47.30
40289;DHT22;28991;52.028;5.526;2022-11-20T03:00:24;17.50;47.30
40289;DHT22;28991;52.028;5.526;2022-11-20T03:02:49;17.50;47.30
40289;DHT22;28991;52.028;5.526;2022-11-20T03:05:15;17.50;47.20
40289;DHT22;28991;52.028;5.526;2022-11-20T03:07:41;17.50;47.20
40289;DHT22;28991;52.028;5.526;2022-11-20T03:10:06;17.80;47.40
40289;DHT22;28991;52.028;5.526;2022-11-20T03:12:32;17.50;47.30
40289;DHT22;28991;52.028;5.526;2022-11-20T03:14:58;17.40;47.20
40289;DHT22;28991;52.028;5.526;2022-11-20T03:17:23;17.50;47.20
40289;DHT22;28991;52.028;5.526;2022-11-20T03:19:49;17.40;47.10
40289;DHT22;28991;52.028;5.526;2022-11-20T03:22:14;17.50;47.20
40289;DHT22;28991;52.028;5.526;2022-11-20T03:24:40;17.50;47.20
40289;DHT22;28991;52.028;5.526;2022-11-20T03:27:05;17.50;47.10
40289;DHT22;28991;52.028;5.526;2022-11-20T03:29:31;17.50;47.20
40289;DHT22;28991;52.028;5.526;2022-11-20T03:31:57;17.40;47.10
40289;DHT22;28991;52.028;5.526;2022-11-20T03:34:23;17.50;47.10
40289;DHT22;28991;52.028;5.526;2022-11-20T03:36:48;17.50;47.10
40289;DHT22;28991;52.028;5.526;2022-11-20T03:39:14;17.40;47.10
40289;DHT22;28991;52.028;5.526;2022-11-20T03:41:41;17.50;47.20
40289;DHT22;28991;52.028;5.526;2022-11-20T03:44:09;17.50;47.10
40289;DHT22;28991;52.028;5.526;2022-11-20T03:46:34;17.50;47.10
40289;DHT22;28991;52.028;5.526;2022-11-20T03:49:00;17.40;47.00
40289;DHT22;28991;52.028;5.526;2022-11-20T03:51:28;17.40;47.00
40289;DHT22;28991;52.028;5.526;2022-11-20T03:53:56;17.20;46.90
40289;DHT22;28991;52.028;5.526;2022-11-20T03:56:25;17.40;47.00
40289;DHT22;28991;52.028;5.526;2022-11-20T03:58:51;17.40;47.00
40289;DHT22;28991;52.028;5.526;2022-11-20T04:01:18;17.50;47.00
40289;DHT22;28991;52.028;5.526;2022-11-20T04:03:45;17.40;46.90
40289;DHT22;28991;52.028;5.526;2022-11-20T04:06:22;17.40;46.90
40289;DHT22;28991;52.028;5.526;2022-11-20T04:08:48;17.40;47.00
40289;DHT22;28991;52.028;5.526;2022-11-20T04:11:15;17.40;46.90
40289;DHT22;28991;52.028;5.526;2022-11-20T04:13:41;17.40;46.90
40289;DHT22;28991;52.028;5.526;2022-11-20T04:16:08;17.40;46.90
40289;DHT22;28991;52.028;5.526;2022-11-20T04:18:34;17.30;46.90
40289;DHT22;28991;52.028;5.526;2022-11-20T04:21:00;17.40;46.90
40289;DHT22;28991;52.028;5.526;2022-11-20T04:23:26;17.40;47.00
40289;DHT22;28991;52.028;5.526;2022-11-20T04:25:52;17.40;47.00
40289;DHT22;28991;52.028;5.526;2022-11-20T04:28:18;17.40;47.00
40289;DHT22;28991;52.028;5.526;2022-11-20T04:30:43;17.40;47.00
40289;DHT22;28991;52.028;5.526;2022-11-20T04:33:09;18.20;47.40
40289;DHT22;28991;52.028;5.526;2022-11-20T04:35:35;17.30;46.90
40289;DHT22;28991;52.028;5.526;2022-11-20T04:38:01;17.40;47.00
40289;DHT22;28991;52.028;5.526;2022-11-20T04:40:27;17.30;47.00
40289;DHT22;28991;52.028;5.526;2022-11-20T04:42:54;17.40;47.10
40289;DHT22;28991;52.028;5.526;2022-11-20T04:45:19;17.30;47.00
40289;DHT22;28991;52.028;5.526;2022-11-20T04:47:45;17.40;47.10
40289;DHT22;28991;52.028;5.526;2022-11-20T04:50:11;17.20;47.00
40289;DHT22;28991;52.028;5.526;2022-11-20T04:52:36;17.40;47.10
40289;DHT22;28991;52.028;5.526;2022-11-20T04:55:02;17.40;47.10
40289;DHT22;28991;52.028;5.526;2022-11-20T04:57:28;17.40;47.10
40289;DHT22;28991;52.028;5.526;2022-11-20T04:59:53;17.40;47.10
40289;DHT22;28991;52.028;5.526;2022-11-20T05:02:19;17.40;47.10
40289;DHT22;28991;52.028;5.526;2022-11-20T05:04:45;17.30;47.10
40289;DHT22;28991;52.028;5.526;2022-11-20T05:07:11;17.30;47.10
40289;DHT22;28991;52.028;5.526;2022-11-20T05:09:36;17.30;47.10
40289;DHT22;28991;52.028;5.526;2022-11-20T05:12:02;17.10;47.00
40289;DHT22;28991;52.028;5.526;2022-11-20T05:14:27;17.30;47.10
40289;DHT22;28991;52.028;5.526;2022-11-20T05:16:53;17.30;47.10
40289;DHT22;28991;52.028;5.526;2022-11-20T05:19:19;17.30;47.10
40289;DHT22;28991;52.028;5.526;2022-11-20T05:21:44;17.40;47.10
40289;DHT22;28991;52.028;5.526;2022-11-20T05:24:10;17.40;47.10
40289;DHT22;28991;52.028;5.526;2022-11-20T05:26:35;17.30;47.10
40289;DHT22;28991;52.028;5.526;2022-11-20T05:29:01;17.30;47.10
40289;DHT22;28991;52.028;5.526;2022-11-20T05:31:26;17.30;47.10
40289;DHT22;28991;52.028;5.526;2022-11-20T05:33:52;17.30;47.10
40289;DHT22;28991;52.028;5.526;2022-11-20T05:36:18;17.30;47.10
40289;DHT22;28991;52.028;5.526;2022-11-20T05:38:44;17.60;47.30
40289;DHT22;28991;52.028;5.526;2022-11-20T05:41:15;17.40;46.10
40289;DHT22;28991;52.028;5.526;2022-11-20T05:43:42;17.40;43.20
40289;DHT22;28991;52.028;5.526;2022-11-20T05:46:10;17.40;41.90
40289;DHT22;28991;52.028;5.526;2022-11-20T05:48:37;17.50;40.40
40289;DHT22;28991;52.028;5.526;2022-11-20T05:51:04;17.60;39.10
40289;DHT22;28991;52.028;5.526;2022-11-20T05:53:32;17.60;37.90
40289;DHT22;28991;52.028;5.526;2022-11-20T05:56:20;17.70;36.90
40289;DHT22;28991;52.028;5.526;2022-11-20T05:58:45;17.80;36.20
40289;DHT22;28991;52.028;5.526;2022-11-20T06:01:18;17.90;35.30
40289;DHT22;28991;52.028;5.526;2022-11-20T06:03:45;17.90;35.10
40289;DHT22;28991;52.028;5.526;2022-11-20T06:06:16;17.80;33.90
40289;DHT22;28991;52.028;5.526;2022-11-20T06:08:42;17.90;33.10
40289;DHT22;28991;52.028;5.526;2022-11-20T06:11:10;17.90;32.60
40289;DHT22;28991;52.028;5.526;2022-11-20T06:13:37;18.00;32.20
40289;DHT22;28991;52.028;5.526;2022-11-20T06:16:03;18.00;31.30
40289;DHT22;28991;52.028;5.526;2022-11-20T06:18:29;18.00;30.70
40289;DHT22;28991;52.028;5.526;2022-11-20T06:21:04;18.00;30.60
40289;DHT22;28991;52.028;5.526;2022-11-20T06:23:31;18.00;30.60
40289;DHT22;28991;52.028;5.526;2022-11-20T06:25:58;18.00;29.90
40289;DHT22;28991;52.028;5.526;2022-11-20T06:28:25;18.10;29.50
40289;DHT22;28991;52.028;5.526;2022-11-20T06:30:51;18.00;29.30
40289;DHT22;28991;52.028;5.526;2022-11-20T06:33:17;18.10;29.20
40289;DHT22;28991;52.028;5.526;2022-11-20T06:35:42;18.10;29.00
40289;DHT22;28991;52.028;5.526;2022-11-20T06:38:08;18.10;28.80
40289;DHT22;28991;52.028;5.526;2022-11-20T06:40:33;18.10;28.60
40289;DHT22;28991;52.028;5.526;2022-11-20T06:42:59;18.10;28.60
40289;DHT22;28991;52.028;5.526;2022-11-20T06:45:24;18.10;28.30
40289;DHT22;28991;52.028;5.526;2022-11-20T06:47:50;18.20;28.50
40289;DHT22;28991;52.028;5.526;2022-11-20T06:50:15;18.10;28.30
40289;DHT22;28991;52.028;5.526;2022-11-20T06:52:41;18.20;28.10
40289;DHT22;28991;52.028;5.526;2022-11-20T06:55:07;18.20;28.00
40289;DHT22;28991;52.028;5.526;2022-11-20T06:57:32;18.20;27.80
40289;DHT22;28991;52.028;5.526;2022-11-20T06:59:58;18.20;28.20
40289;DHT22;28991;52.028;5.526;2022-11-20T07:02:24;18.20;28.20
40289;DHT22;28991;52.028;5.526;2022-11-20T07:04:49;18.00;28.10
40289;DHT22;28991;52.028;5.526;2022-11-20T07:07:15;18.20;27.60
40289;DHT22;28991;52.028;5.526;2022-11-20T07:09:40;18.20;27.90
40289;DHT22;28991;52.028;5.526;2022-11-20T07:12:06;18.20;28.10
40289;DHT22;28991;52.028;5.526;2022-11-20T07:14:31;18.20;27.80
40289;DHT22;28991;52.028;5.526;2022-11-20T07:16:57;18.20;27.80
40289;DHT22;28991;52.028;5.526;2022-11-20T07:19:22;18.20;27.80
40289;DHT22;28991;52.028;5.526;2022-11-20T07:21:48;18.20;27.90
40289;DHT22;28991;52.028;5.526;2022-11-20T07:24:14;18.20;27.80
40289;DHT22;28991;52.028;5.526;2022-11-20T07:26:39;18.30;28.10
40289;DHT22;28991;52.028;5.526;2022-11-20T07:29:05;18.30;27.70
40289;DHT22;28991;52.028;5.526;2022-11-20T07:31:30;18.20;28.00
40289;DHT22;28991;52.028;5.526;2022-11-20T07:33:56;18.20;27.60
40289;DHT22;28991;52.028;5.526;2022-11-20T07:36:21;18.20;27.70
40289;DHT22;28991;52.028;5.526;2022-11-20T07:38:47;18.20;27.70
40289;DHT22;28991;52.028;5.526;2022-11-20T07:41:12;18.20;28.00
40289;DHT22;28991;52.028;5.526;2022-11-20T07:43:38;18.30;28.10
40289;DHT22;28991;52.028;5.526;2022-11-20T07:46:04;18.20;28.00
40289;DHT22;28991;52.028;5.526;2022-11-20T07:48:29;18.30;27.70
40289;DHT22;28991;52.028;5.526;2022-11-20T07:50:56;18.30;27.50
40289;DHT22;28991;52.028;5.526;2022-11-20T07:53:22;18.20;27.80
40289;DHT22;28991;52.028;5.526;2022-11-20T07:55:48;18.30;27.80
40289;DHT22;28991;52.028;5.526;2022-11-20T07:58:13;18.30;27.80
40289;DHT22;28991;52.028;5.526;2022-11-20T08:00:40;18.40;27.80
40289;DHT22;28991;52.028;5.526;2022-11-20T08:03:06;18.30;28.20
40289;DHT22;28991;52.028;5.526;2022-11-20T08:05:31;18.40;28.70
40289;DHT22;28991;52.028;5.526;2022-11-20T08:07:57;18.40;28.00
40289;DHT22;28991;52.028;5.526;2022-11-20T08:10:22;18.40;28.30
40289;DHT22;28991;52.028;5.526;2022-11-20T08:12:50;18.40;28.00
40289;DHT22;28991;52.028;5.526;2022-11-20T08:15:35;19.60;29.40
40289;DHT22;28991;52.028;5.526;2022-11-20T08:18:05;18.40;28.40
40289;DHT22;28991;52.028;5.526;2022-11-20T08:20:31;18.40;28.70
40289;DHT22;28991;52.028;5.526;2022-11-20T08:23:01;18.40;29.00
40289;DHT22;28991;52.028;5.526;2022-11-20T08:25:28;18.40;28.90
40289;DHT22;28991;52.028;5.526;2022-11-20T08:27:54;18.50;29.80
40289;DHT22;28991;52.028;5.526;2022-11-20T08:30:19;18.50;28.80
40289;DHT22;28991;52.028;5.526;2022-11-20T08:32:45;18.50;29.50
40289;DHT22;28991;52.028;5.526;2022-11-20T08:35:10;18.40;29.50
40289;DHT22;28991;52.028;5.526;2022-11-20T08:37:36;18.50;29.40
40289;DHT22;28991;52.028;5.526;2022-11-20T08:40:04;18.50;29.20
40289;DHT22;28991;52.028;5.526;2022-11-20T08:42:29;18.50;29.30
40289;DHT22;28991;52.028;5.526;2022-11-20T08:44:55;18.50;29.40
40289;DHT22;28991;52.028;5.526;2022-11-20T08:47:21;18.50;30.00
40289;DHT22;28991;52.028;5.526;2022-11-20T08:49:46;18.40;29.60
40289;DHT22;28991;52.028;5.526;2022-11-20T08:52:12;18.50;29.60
40289;DHT22;28991;52.028;5.526;2022-11-20T08:54:37;18.50;29.90
40289;DHT22;28991;52.028;5.526;2022-11-20T08:57:03;18.40;29.90
40289;DHT22;28991;52.028;5.526;2022-11-20T08:59:28;18.80;31.00
40289;DHT22;28991;52.028;5.526;2022-11-20T09:01:55;18.50;30.00
40289;DHT22;28991;52.028;5.526;2022-11-20T09:04:20;18.50;29.90
40289;DHT22;28991;52.028;5.526;2022-11-20T09:06:46;18.40;30.00
40289;DHT22;28991;52.028;5.526;2022-11-20T09:09:16;18.50;30.10
40289;DHT22;28991;52.028;5.526;2022-11-20T09:11:42;18.60;29.80
40289;DHT22;28991;52.028;5.526;2022-11-20T09:14:07;18.50;29.70
40289;DHT22;28991;52.028;5.526;2022-11-20T09:16:33;18.40;29.80
40289;DHT22;28991;52.028;5.526;2022-11-20T09:18:58;18.40;30.50
40289;DHT22;28991;52.028;5.526;2022-11-20T09:21:24;18.50;30.50
40289;DHT22;28991;52.028;5.526;2022-11-20T09:23:49;18.50;29.70
40289;DHT22;28991;52.028;5.526;2022-11-20T09:26:15;18.40;30.30
40289;DHT22;28991;52.028;5.526;2022-11-20T09:28:41;18.50;30.00
40289;DHT22;28991;52.028;5.526;2022-11-20T09:31:22;19.00;30.30
40289;DHT22;28991;52.028;5.526;2022-11-20T09:33:48;18.50;30.20
40289;DHT22;28991;52.028;5.526;2022-11-20T09:36:14;18.50;30.10
40289;DHT22;28991;52.028;5.526;2022-11-20T09:38:41;18.40;30.60
40289;DHT22;28991;52.028;5.526;2022-11-20T09:41:11;18.60;30.70
40289;DHT22;28991;52.028;5.526;2022-11-20T09:44:07;18.50;30.60
40289;DHT22;28991;52.028;5.526;2022-11-20T09:53:04;18.50;31.30
40289;DHT22;28991;52.028;5.526;2022-11-20T09:55:26;18.50;31.40
40289;DHT22;28991;52.028;5.526;2022-11-20T09:57:53;18.60;30.70
40289;DHT22;28991;52.028;5.526;2022-11-20T10:00:19;18.50;30.80
40289;DHT22;28991;52.028;5.526;2022-11-20T10:05:58;18.60;30.90
40289;DHT22;28991;52.028;5.526;2022-11-20T10:08:29;18.60;30.50
40289;DHT22;28991;52.028;5.526;2022-11-20T10:11:18;18.60;31.00
40289;DHT22;28991;52.028;5.526;2022-11-20T10:19:38;18.60;31.30
40289;DHT22;28991;52.028;5.526;2022-11-20T10:25:14;18.60;31.60
40289;DHT22;28991;52.028;5.526;2022-11-20T10:30:16;18.60;31.70
40289;DHT22;28991;52.028;5.526;2022-11-20T10:32:46;18.60;31.30
40289;DHT22;28991;52.028;5.526;2022-11-20T10:38:00;18.60;32.00
40289;DHT22;28991;52.028;5.526;2022-11-20T10:40:35;18.60;31.80
40289;DHT22;28991;52.028;5.526;2022-11-20T10:43:17;18.60;31.50
40289;DHT22;28991;52.028;5.526;2022-11-20T10:45:52;18.60;32.00
40289;DHT22;28991;52.028;5.526;2022-11-20T10:48:25;18.60;31.90
40289;DHT22;28991;52.028;5.526;2022-11-20T10:54:15;18.50;31.70
40289;DHT22;28991;52.028;5.526;2022-11-20T10:57:03;18.50;32.50
40289;DHT22;28991;52.028;5.526;2022-11-20T10:59:45;18.60;32.90
40289;DHT22;28991;52.028;5.526;2022-11-20T11:02:22;18.50;32.70
40289;DHT22;28991;52.028;5.526;2022-11-20T11:04:54;18.50;32.60
40289;DHT22;28991;52.028;5.526;2022-11-20T11:07:30;18.40;32.50
40289;DHT22;28991;52.028;5.526;2022-11-20T11:09:59;18.50;32.80
40289;DHT22;28991;52.028;5.526;2022-11-20T11:12:26;18.40;32.90
40289;DHT22;28991;52.028;5.526;2022-11-20T11:14:55;18.50;32.90
40289;DHT22;28991;52.028;5.526;2022-11-20T11:17:25;18.40;33.10
40289;DHT22;28991;52.028;5.526;2022-11-20T11:22:29;18.40;33.40
40289;DHT22;28991;52.028;5.526;2022-11-20T11:24:55;18.50;33.40
40289;DHT22;28991;52.028;5.526;2022-11-20T11:27:21;18.40;33.60
40289;DHT22;28991;52.028;5.526;2022-11-20T11:29:46;18.40;33.50
40289;DHT22;28991;52.028;5.526;2022-11-20T11:32:15;18.40;33.80
40289;DHT22;28991;52.028;5.526;2022-11-20T11:34:41;18.30;33.60
40289;DHT22;28991;52.028;5.526;2022-11-20T11:37:19;18.30;33.70
40289;DHT22;28991;52.028;5.526;2022-11-20T11:39:46;18.30;33.70
40289;DHT22;28991;52.028;5.526;2022-11-20T11:42:17;18.30;34.00
40289;DHT22;28991;52.028;5.526;2022-11-20T11:44:45;18.30;33.90
40289;DHT22;28991;52.028;5.526;2022-11-20T11:47:37;18.30;33.80
40289;DHT22;28991;52.028;5.526;2022-11-20T11:53:09;18.30;33.70
40289;DHT22;28991;52.028;5.526;2022-11-20T11:55:54;18.30;34.30
40289;DHT22;28991;52.028;5.526;2022-11-20T11:58:44;18.30;34.00
40289;DHT22;28991;52.028;5.526;2022-11-20T12:06:48;18.30;34.40
40289;DHT22;28991;52.028;5.526;2022-11-20T12:09:16;18.20;34.50
40289;DHT22;28991;52.028;5.526;2022-11-20T12:11:49;18.10;34.60
40289;DHT22;28991;52.028;5.526;2022-11-20T12:14:34;18.10;34.80
40289;DHT22;28991;52.028;5.526;2022-11-20T12:17:01;18.10;34.90
40289;DHT22;28991;52.028;5.526;2022-11-20T12:19:30;17.90;34.90
40289;DHT22;28991;52.028;5.526;2022-11-20T12:22:22;18.00;35.10
40289;DHT22;28991;52.028;5.526;2022-11-20T12:25:04;17.90;35.30
40289;DHT22;28991;52.028;5.526;2022-11-20T12:27:47;17.90;35.30
40289;DHT22;28991;52.028;5.526;2022-11-20T12:30:18;17.80;35.30
40289;DHT22;28991;52.028;5.526;2022-11-20T12:36:00;17.80;35.60
40289;DHT22;28991;52.028;5.526;2022-11-20T12:53:04;17.60;36.00
40289;DHT22;28991;52.028;5.526;2022-11-20T13:06:35;17.60;36.40
40289;DHT22;28991;52.028;5.526;2022-11-20T13:09:01;17.50;36.40
40289;DHT22;28991;52.028;5.526;2022-11-20T13:11:39;17.50;36.40
40289;DHT22;28991;52.028;5.526;2022-11-20T13:19:34;17.50;36.60
40289;DHT22;28991;52.028;5.526;2022-11-20T13:22:00;17.50;36.70
40289;DHT22;28991;52.028;5.526;2022-11-20T13:24:31;17.60;36.80
40289;DHT22;28991;52.028;5.526;2022-11-20T13:29:37;17.40;36.90
40289;DHT22;28991;52.028;5.526;2022-11-20T13:32:20;17.40;36.90
40289;DHT22;28991;52.028;5.526;2022-11-20T13:34:54;17.40;36.90
40289;DHT22;28991;52.028;5.526;2022-11-20T13:37:34;17.40;37.00
40289;DHT22;28991;52.028;5.526;2022-11-20T13:42:40;17.40;37.20
40289;DHT22;28991;52.028;5.526;2022-11-20T13:45:11;17.40;37.20
40289;DHT22;28991;52.028;5.526;2022-11-20T13:47:50;17.30;37.20
40289;DHT22;28991;52.028;5.526;2022-11-20T13:50:16;17.40;37.40
40289;DHT22;28991;52.028;5.526;2022-11-20T13:55:58;17.40;37.50
40289;DHT22;28991;52.028;5.526;2022-11-20T13:58:40;17.30;37.40
40289;DHT22;28991;52.028;5.526;2022-11-20T14:01:15;17.30;37.50
40289;DHT22;28991;52.028;5.526;2022-11-20T14:03:42;17.40;37.60
40289;DHT22;28991;52.028;5.526;2022-11-20T14:06:39;17.30;37.60
40289;DHT22;28991;52.028;5.526;2022-11-20T14:09:24;17.30;37.70
40289;DHT22;28991;52.028;5.526;2022-11-20T14:11:50;17.30;37.70
40289;DHT22;28991;52.028;5.526;2022-11-20T14:14:17;17.30;37.70
40289;DHT22;28991;52.028;5.526;2022-11-20T14:16:44;17.30;37.80
40289;DHT22;28991;52.028;5.526;2022-11-20T14:21:46;17.40;38.00
40289;DHT22;28991;52.028;5.526;2022-11-20T14:24:13;17.30;38.00
40289;DHT22;28991;52.028;5.526;2022-11-20T14:26:43;17.30;38.00
40289;DHT22;28991;52.028;5.526;2022-11-20T14:29:29;17.30;38.00
40289;DHT22;28991;52.028;5.526;2022-11-20T14:31:56;17.30;38.10
40289;DHT22;28991;52.028;5.526;2022-11-20T14:34:25;17.20;38.10
40289;DHT22;28991;52.028;5.526;2022-11-20T14:36:55;17.30;38.20
40289;DHT22;28991;52.028;5.526;2022-11-20T14:39:28;17.20;38.20
40289;DHT22;28991;52.028;5.526;2022-11-20T14:41:55;17.30;38.30
40289;DHT22;28991;52.028;5.526;2022-11-20T14:44:30;17.30;38.30
40289;DHT22;28991;52.028;5.526;2022-11-20T14:46:57;17.20;38.40
40289;DHT22;28991;52.028;5.526;2022-11-20T14:49:24;17.30;38.40
40289;DHT22;28991;52.028;5.526;2022-11-20T14:51:59;17.30;38.50
40289;DHT22;28991;52.028;5.526;2022-11-20T14:54:25;17.30;38.50
40289;DHT22;28991;52.028;5.526;2022-11-20T14:57:00;17.20;38.50
40289;DHT22;28991;52.028;5.526;2022-11-20T14:59:29;17.20;38.60
40289;DHT22;28991;52.028;5.526;2022-11-20T15:02:01;17.30;38.60
40289;DHT22;28991;52.028;5.526;2022-11-20T15:04:28;17.20;38.60
40289;DHT22;28991;52.028;5.526;2022-11-20T15:06:55;17.00;38.60
40289;DHT22;28991;52.028;5.526;2022-11-20T15:09:22;17.30;38.80
40289;DHT22;28991;52.028;5.526;2022-11-20T15:12:03;17.20;38.80
40289;DHT22;28991;52.028;5.526;2022-11-20T15:14:30;17.20;38.80
40289;DHT22;28991;52.028;5.526;2022-11-20T15:16:56;17.20;38.80
40289;DHT22;28991;52.028;5.526;2022-11-20T15:19:23;17.10;38.80
40289;DHT22;28991;52.028;5.526;2022-11-20T15:21:49;17.20;38.90
40289;DHT22;28991;52.028;5.526;2022-11-20T15:24:15;17.30;39.00
40289;DHT22;28991;52.028;5.526;2022-11-20T15:26:41;17.20;39.00
40289;DHT22;28991;52.028;5.526;2022-11-20T15:29:11;17.20;39.00
40289;DHT22;28991;52.028;5.526;2022-11-20T15:31:37;17.20;39.10
40289;DHT22;28991;52.028;5.526;2022-11-20T15:34:13;17.30;39.20
40289;DHT22;28991;52.028;5.526;2022-11-20T15:36:39;17.20;39.20
40289;DHT22;28991;52.028;5.526;2022-11-20T15:39:06;17.20;39.20
40289;DHT22;28991;52.028;5.526;2022-11-20T15:41:33;17.30;39.30
40289;DHT22;28991;52.028;5.526;2022-11-20T15:43:59;17.20;39.30
40289;DHT22;28991;52.028;5.526;2022-11-20T15:46:27;17.20;39.30
40289;DHT22;28991;52.028;5.526;2022-11-20T15:48:55;17.10;39.30
40289;DHT22;28991;52.028;5.526;2022-11-20T15:51:31;17.20;39.40
40289;DHT22;28991;52.028;5.526;2022-11-20T15:53:59;17.20;39.40
40289;DHT22;28991;52.028;5.526;2022-11-20T15:56:25;17.00;39.40
40289;DHT22;28991;52.028;5.526;2022-11-20T15:58:50;17.10;39.50
40289;DHT22;28991;52.028;5.526;2022-11-20T16:01:18;17.10;39.50
40289;DHT22;28991;52.028;5.526;2022-11-20T16:03:44;17.10;39.50
40289;DHT22;28991;52.028;5.526;2022-11-20T16:06:10;17.10;39.60
40289;DHT22;28991;52.028;5.526;2022-11-20T16:08:36;17.20;39.70
40289;DHT22;28991;52.028;5.526;2022-11-20T16:11:02;17.10;39.70
40289;DHT22;28991;52.028;5.526;2022-11-20T16:13:27;17.10;39.70
40289;DHT22;28991;52.028;5.526;2022-11-20T16:16:19;17.20;39.80
40289;DHT22;28991;52.028;5.526;2022-11-20T16:18:46;17.10;39.80
40289;DHT22;28991;52.028;5.526;2022-11-20T16:21:11;17.10;39.80
40289;DHT22;28991;52.028;5.526;2022-11-20T16:23:40;17.20;39.90
40289;DHT22;28991;52.028;5.526;2022-11-20T16:26:14;17.10;39.90
40289;DHT22;28991;52.028;5.526;2022-11-20T16:28:40;17.20;40.00
40289;DHT22;28991;52.028;5.526;2022-11-20T16:31:16;17.20;40.00
40289;DHT22;28991;52.028;5.526;2022-11-20T16:33:43;17.10;40.00
40289;DHT22;28991;52.028;5.526;2022-11-20T16:36:14;17.10;40.00
40289;DHT22;28991;52.028;5.526;2022-11-20T16:38:41;17.10;40.10
40289;DHT22;28991;52.028;5.526;2022-11-20T16:41:07;17.10;40.10
40289;DHT22;28991;52.028;5.526;2022-11-20T16:43:47;17.10;40.10
40289;DHT22;28991;52.028;5.526;2022-11-20T16:46:14;17.20;40.20
40289;DHT22;28991;52.028;5.526;2022-11-20T16:48:39;17.10;40.20
40289;DHT22;28991;52.028;5.526;2022-11-20T16:51:08;17.10;40.20
40289;DHT22;28991;52.028;5.526;2022-11-20T16:53:34;17.20;40.30
40289;DHT22;28991;52.028;5.526;2022-11-20T16:56:12;17.20;40.30
40289;DHT22;28991;52.028;5.526;2022-11-20T16:58:40;17.10;40.30
40289;DHT22;28991;52.028;5.526;2022-11-20T17:01:10;17.00;40.30
40289;DHT22;28991;52.028;5.526;2022-11-20T17:03:40;17.10;40.40
40289;DHT22;28991;52.028;5.526;2022-11-20T17:06:15;17.10;40.40
40289;DHT22;28991;52.028;5.526;2022-11-20T17:08:41;17.00;40.40
40289;DHT22;28991;52.028;5.526;2022-11-20T17:11:08;17.10;40.50